createdAt,value
2022-12-24T00:00:44.083Z,64.03
2022-12-24T00:01:45.669Z,64.09
2022-12-24T00:02:47.318Z,63.81
2022-12-24T00:03:49.137Z,63.33
2022-12-24T00:04:53.057Z,63.28
2022-12-24T00:05:58.663Z,63.62
2022-12-24T00:07:00.111Z,63.61
2022-12-24T00:08:01.584Z,64.20
2022-12-24T00:09:03.126Z,64.87
2022-12-24T00:10:05.108Z,63.83
2022-12-24T00:11:06.653Z,63.83
2022-12-24T00:12:08.217Z,63.55
2022-12-24T00:13:09.692Z,63.89
2022-12-24T00:14:11.205Z,63.93
2022-12-24T00:15:12.684Z,63.92
2022-12-24T00:16:14.272Z,64.15
2022-12-24T00:17:15.907Z,63.59
2022-12-24T00:18:17.452Z,64.24
2022-12-24T00:19:19.040Z,63.88
2022-12-24T00:20:20.535Z,64.24
2022-12-24T00:21:22.081Z,63.85
2022-12-24T00:22:23.605Z,63.63
2022-12-24T00:23:25.075Z,63.87
2022-12-24T00:24:26.623Z,63.86
2022-12-24T00:25:28.096Z,63.72
2022-12-24T00:26:29.596Z,64.00
2022-12-24T00:27:31.128Z,64.05
2022-12-24T00:28:32.601Z,64.08
2022-12-24T00:29:34.101Z,63.78
2022-12-24T00:30:35.655Z,64.05
2022-12-24T00:31:37.119Z,64.09
2022-12-24T00:32:38.795Z,63.85
2022-12-24T00:33:40.414Z,63.87
2022-12-24T00:34:41.927Z,63.59
2022-12-24T00:35:43.411Z,63.48
2022-12-24T00:36:44.877Z,63.70
2022-12-24T00:37:49.326Z,63.91
2022-12-24T00:38:50.796Z,64.07
2022-12-24T00:39:52.362Z,64.08
2022-12-24T00:40:58.319Z,64.15
2022-12-24T00:41:59.770Z,64.29
2022-12-24T00:43:01.326Z,64.28
2022-12-24T00:44:06.242Z,64.29
2022-12-24T00:45:08.206Z,64.25
2022-12-24T00:46:09.705Z,64.29
2022-12-24T00:47:12.343Z,64.26
2022-12-24T00:48:13.952Z,64.34
2022-12-24T00:49:15.517Z,64.28
2022-12-24T00:50:16.960Z,64.07
2022-12-24T00:51:18.637Z,64.11
2022-12-24T00:52:20.245Z,64.04
2022-12-24T00:53:21.790Z,63.98
2022-12-24T00:54:23.243Z,64.06
2022-12-24T00:55:24.755Z,64.05
2022-12-24T00:56:26.243Z,63.95
2022-12-24T00:57:27.739Z,63.86
2022-12-24T00:58:29.212Z,63.86
2022-12-24T00:59:30.706Z,63.97
2022-12-24T01:00:32.189Z,63.92
2022-12-24T01:01:35.743Z,63.87
2022-12-24T01:02:37.567Z,63.72
2022-12-24T01:03:39.360Z,63.68
2022-12-24T01:04:59.722Z,63.88
2022-12-24T01:06:01.822Z,63.72
2022-12-24T01:07:03.293Z,63.87
2022-12-24T01:08:04.928Z,63.87
2022-12-24T01:09:06.432Z,63.73
2022-12-24T01:10:08.272Z,63.72
2022-12-24T01:11:09.960Z,63.68
2022-12-24T01:12:11.482Z,63.57
2022-12-24T01:13:12.948Z,63.62
2022-12-24T01:14:14.409Z,63.18
2022-12-24T01:15:16.046Z,63.06
2022-12-24T01:16:18.689Z,62.85
2022-12-24T01:17:20.199Z,63.09
2022-12-24T01:18:21.764Z,63.50
2022-12-24T01:19:23.255Z,63.64
2022-12-24T01:20:27.013Z,63.20
2022-12-24T01:21:28.498Z,63.40
2022-12-24T01:22:30.045Z,63.17
2022-12-24T01:23:31.592Z,63.55
2022-12-24T01:24:33.077Z,63.63
2022-12-24T01:25:34.539Z,63.56
2022-12-24T01:26:36.036Z,63.46
2022-12-24T01:27:37.660Z,63.10
2022-12-24T01:28:39.206Z,63.16
2022-12-24T01:29:41.178Z,63.32
2022-12-24T01:30:42.926Z,63.18
2022-12-24T01:31:44.511Z,63.13
2022-12-24T01:32:46.003Z,63.21
2022-12-24T01:33:48.431Z,62.89
2022-12-24T01:34:49.894Z,63.00
2022-12-24T01:35:51.344Z,63.25
2022-12-24T01:36:52.867Z,63.12
2022-12-24T01:37:54.442Z,63.17
2022-12-24T01:38:55.964Z,63.37
2022-12-24T01:40:17.410Z,62.79
2022-12-24T01:41:38.097Z,62.98
2022-12-24T01:42:58.347Z,62.91
2022-12-24T01:44:15.580Z,63.11
2022-12-24T01:45:43.276Z,62.94
2022-12-24T01:46:44.828Z,63.12
2022-12-24T01:47:46.420Z,63.19
2022-12-24T01:48:49.676Z,63.22
2022-12-24T01:49:52.429Z,62.98
2022-12-24T01:50:58.452Z,62.85
2022-12-24T01:52:13.243Z,62.74
2022-12-24T01:53:14.721Z,62.65
2022-12-24T01:54:18.311Z,62.96
2022-12-24T01:55:19.786Z,62.54
2022-12-24T01:56:21.251Z,62.59
2022-12-24T01:57:23.667Z,62.71
2022-12-24T01:58:25.277Z,62.75
2022-12-24T01:59:26.949Z,62.76
2022-12-24T02:00:28.442Z,62.79
2022-12-24T02:01:30.017Z,62.96
2022-12-24T02:02:33.376Z,63.11
2022-12-24T02:03:35.222Z,63.13
2022-12-24T02:04:42.549Z,63.32
2022-12-24T02:05:47.849Z,63.08
2022-12-24T02:06:49.333Z,63.22
2022-12-24T02:07:50.841Z,63.25
2022-12-24T02:08:52.310Z,63.36
2022-12-24T02:09:54.202Z,63.36
2022-12-24T02:10:55.646Z,63.42
2022-12-24T02:11:57.160Z,63.53
2022-12-24T02:12:58.638Z,63.70
2022-12-24T02:14:00.368Z,63.62
2022-12-24T02:15:01.917Z,63.88
2022-12-24T02:16:06.502Z,64.00
2022-12-24T02:17:07.980Z,63.94
2022-12-24T02:18:09.444Z,63.69
2022-12-24T02:19:10.880Z,63.93
2022-12-24T02:20:24.830Z,64.00
2022-12-24T02:21:28.828Z,64.02
2022-12-24T02:22:48.988Z,64.46
2022-12-24T02:24:08.928Z,64.49
2022-12-24T02:25:22.101Z,64.21
2022-12-24T02:26:23.604Z,64.13
2022-12-24T02:27:28.403Z,64.12
2022-12-24T02:28:56.292Z,64.47
2022-12-24T02:30:12.831Z,64.32
2022-12-24T02:31:20.547Z,64.42
2022-12-24T02:32:25.363Z,64.57
2022-12-24T02:33:30.988Z,64.47
2022-12-24T02:34:51.722Z,64.89
2022-12-24T02:35:55.880Z,64.79
2022-12-24T02:37:14.373Z,64.77
2022-12-24T02:38:15.818Z,64.95
2022-12-24T02:39:19.308Z,65.31
2022-12-24T02:40:31.645Z,65.67
2022-12-24T02:41:55.167Z,65.49
2022-12-24T02:42:58.496Z,65.79
2022-12-24T02:43:59.944Z,65.83
2022-12-24T02:45:02.319Z,65.88
2022-12-24T02:46:07.387Z,65.60
2022-12-24T02:47:09.064Z,65.86
2022-12-24T02:48:10.655Z,65.83
2022-12-24T02:49:12.420Z,65.92
2022-12-24T02:50:14.412Z,65.93
2022-12-24T02:51:15.910Z,65.68
2022-12-24T02:52:33.639Z,66.15
2022-12-24T02:53:35.224Z,65.82
2022-12-24T02:54:36.691Z,66.14
2022-12-24T02:55:45.763Z,66.23
2022-12-24T02:56:54.124Z,66.36
2022-12-24T02:58:07.583Z,66.31
2022-12-24T02:59:09.019Z,66.25
2022-12-24T03:00:13.949Z,66.15
2022-12-24T03:01:18.436Z,66.03
2022-12-24T03:02:24.530Z,66.34
2022-12-24T03:03:26.137Z,66.28
2022-12-24T03:04:56.544Z,66.18
2022-12-24T03:06:05.501Z,66.58
2022-12-24T03:07:06.931Z,66.51
2022-12-24T03:08:16.527Z,66.42
2022-12-24T03:09:24.035Z,66.46
2022-12-24T03:10:28.069Z,66.56
2022-12-24T03:11:29.632Z,66.34
2022-12-24T03:12:35.596Z,66.64
2022-12-24T03:13:37.212Z,66.28
2022-12-24T03:14:39.637Z,66.20
2022-12-24T03:15:41.167Z,66.52
2022-12-24T03:16:42.756Z,66.58
2022-12-24T03:17:45.329Z,66.41
2022-12-24T03:18:47.519Z,66.53
2022-12-24T03:19:49.090Z,66.60
2022-12-24T03:20:52.977Z,66.92
2022-12-24T03:21:57.146Z,66.97
2022-12-24T03:22:58.613Z,67.21
2022-12-24T03:24:00.081Z,67.52
2022-12-24T03:25:01.579Z,67.26
2022-12-24T03:26:04.792Z,67.65
2022-12-24T03:27:06.512Z,67.82
2022-12-24T03:28:08.021Z,68.00
2022-12-24T03:29:09.656Z,68.09
2022-12-24T03:30:11.999Z,67.94
2022-12-24T03:31:13.495Z,67.97
2022-12-24T03:32:15.032Z,68.07
2022-12-24T03:33:16.495Z,68.21
2022-12-24T03:34:18.026Z,68.37
2022-12-24T03:35:19.610Z,67.90
2022-12-24T03:36:21.120Z,68.09
2022-12-24T03:37:22.799Z,68.10
2022-12-24T03:38:24.283Z,68.00
2022-12-24T03:39:25.813Z,67.87
2022-12-24T03:40:27.302Z,68.00
2022-12-24T03:41:28.806Z,67.88
2022-12-24T03:42:30.264Z,67.79
2022-12-24T03:43:31.729Z,68.15
2022-12-24T03:44:33.325Z,68.20
2022-12-24T03:45:34.792Z,68.08
2022-12-24T03:46:36.410Z,68.30
2022-12-24T03:47:37.860Z,68.15
2022-12-24T03:48:39.369Z,68.46
2022-12-24T03:49:40.973Z,69.10
2022-12-24T03:50:42.515Z,69.49
2022-12-24T03:51:43.997Z,69.54
2022-12-24T03:52:45.452Z,69.23
2022-12-24T03:53:46.955Z,70.07
2022-12-24T03:54:48.451Z,70.06
2022-12-24T03:55:49.955Z,69.94
2022-12-24T03:56:51.501Z,70.03
2022-12-24T03:57:52.960Z,70.21
2022-12-24T03:58:54.426Z,70.02
2022-12-24T03:59:55.920Z,70.17
2022-12-24T04:00:57.446Z,69.85
2022-12-24T04:01:59.254Z,69.76
2022-12-24T04:03:00.943Z,70.06
2022-12-24T04:04:02.484Z,70.18
2022-12-24T04:05:04.107Z,70.02
2022-12-24T04:06:06.693Z,70.14
2022-12-24T04:07:08.193Z,70.85
2022-12-24T04:08:09.669Z,70.40
2022-12-24T04:09:11.205Z,70.86
2022-12-24T04:10:12.893Z,70.58
2022-12-24T04:11:14.933Z,70.96
2022-12-24T04:12:16.492Z,70.80
2022-12-24T04:13:17.953Z,70.38
2022-12-24T04:14:19.482Z,70.75
2022-12-24T04:15:21.097Z,70.55
2022-12-24T04:16:22.608Z,70.65
2022-12-24T04:17:24.098Z,70.74
2022-12-24T04:18:25.818Z,70.71
2022-12-24T04:19:27.332Z,71.11
2022-12-24T04:20:28.794Z,70.87
2022-12-24T04:21:30.287Z,71.14
2022-12-24T04:22:32.559Z,71.34
2022-12-24T04:23:34.408Z,71.39
2022-12-24T04:24:35.952Z,71.28
2022-12-24T04:25:37.403Z,71.26
2022-12-24T04:26:38.886Z,71.63
2022-12-24T04:27:40.403Z,71.38
2022-12-24T04:28:42.075Z,71.48
2022-12-24T04:29:43.561Z,71.50
2022-12-24T04:30:45.044Z,71.25
2022-12-24T04:31:46.604Z,71.62
2022-12-24T04:32:48.071Z,71.21
2022-12-24T04:33:50.420Z,71.61
2022-12-24T04:34:51.938Z,71.55
2022-12-24T04:35:53.454Z,71.66
2022-12-24T04:36:54.940Z,71.37
2022-12-24T04:37:56.464Z,71.78
2022-12-24T04:38:57.969Z,71.53
2022-12-24T04:39:59.496Z,71.23
2022-12-24T04:41:05.055Z,71.58
2022-12-24T04:42:06.572Z,71.40
2022-12-24T04:43:08.044Z,71.84
2022-12-24T04:44:09.677Z,71.71
2022-12-24T04:45:11.780Z,71.91
2022-12-24T04:46:19.872Z,72.12
2022-12-24T04:47:21.416Z,71.90
2022-12-24T04:48:22.902Z,72.14
2022-12-24T04:49:24.480Z,71.94
2022-12-24T04:50:26.044Z,71.79
2022-12-24T04:51:27.624Z,71.75
2022-12-24T04:52:29.223Z,71.41
2022-12-24T04:53:31.056Z,71.36
2022-12-24T04:54:32.575Z,71.57
2022-12-24T04:55:34.058Z,71.50
2022-12-24T04:56:35.649Z,71.35
2022-12-24T04:57:37.943Z,71.50
2022-12-24T04:58:39.417Z,71.23
2022-12-24T04:59:40.994Z,71.37
2022-12-24T05:00:42.510Z,71.38
2022-12-24T05:01:44.127Z,71.06
2022-12-24T05:02:45.798Z,71.16
2022-12-24T05:03:47.359Z,71.18
2022-12-24T05:04:48.880Z,70.98
2022-12-24T05:05:50.396Z,71.18
2022-12-24T05:06:51.874Z,71.36
2022-12-24T05:07:53.938Z,70.88
2022-12-24T05:08:55.890Z,71.14
2022-12-24T05:09:57.405Z,70.96
2022-12-24T05:10:58.929Z,71.27
2022-12-24T05:12:00.723Z,71.39
2022-12-24T05:13:02.189Z,70.78
2022-12-24T05:14:03.797Z,70.70
2022-12-24T05:15:05.548Z,70.88
2022-12-24T05:16:07.327Z,70.78
2022-12-24T05:17:08.847Z,70.67
2022-12-24T05:18:10.461Z,70.40
2022-12-24T05:19:11.941Z,70.40
2022-12-24T05:20:13.448Z,70.15
2022-12-24T05:21:16.302Z,70.36
2022-12-24T05:22:36.490Z,70.50
2022-12-24T05:23:56.487Z,70.51
2022-12-24T05:25:16.387Z,70.51
2022-12-24T05:26:23.904Z,70.55
2022-12-24T05:27:25.403Z,70.48
2022-12-24T05:28:27.029Z,70.29
2022-12-24T05:29:28.509Z,70.34
2022-12-24T05:30:30.028Z,70.46
2022-12-24T05:31:31.875Z,70.39
2022-12-24T05:32:33.369Z,70.41
2022-12-24T05:33:34.855Z,70.34
2022-12-24T05:34:36.333Z,70.43
2022-12-24T05:35:37.773Z,70.68
2022-12-24T05:36:39.328Z,70.55
2022-12-24T05:37:40.826Z,70.67
2022-12-24T05:38:42.421Z,70.69
2022-12-24T05:39:43.919Z,70.43
2022-12-24T05:40:46.275Z,70.28
2022-12-24T05:41:47.863Z,70.11
2022-12-24T05:42:50.142Z,70.16
2022-12-24T05:43:51.607Z,70.12
2022-12-24T05:44:53.107Z,69.99
2022-12-24T05:45:58.890Z,70.15
2022-12-24T05:47:00.396Z,69.82
2022-12-24T05:48:01.928Z,70.19
2022-12-24T05:49:03.380Z,70.05
2022-12-24T05:50:05.120Z,69.77
2022-12-24T05:51:07.280Z,69.87
2022-12-24T05:52:08.784Z,69.78
2022-12-24T05:53:10.241Z,70.14
2022-12-24T05:54:11.707Z,70.16
2022-12-24T05:55:13.194Z,70.24
2022-12-24T05:56:15.798Z,70.01
2022-12-24T05:57:17.271Z,69.95
2022-12-24T05:58:18.778Z,69.90
2022-12-24T05:59:20.269Z,70.02
2022-12-24T06:00:21.804Z,69.99
2022-12-24T06:01:23.592Z,70.26
2022-12-24T06:02:25.135Z,70.44
2022-12-24T06:03:26.851Z,70.16
2022-12-24T06:04:29.190Z,70.44
2022-12-24T06:05:30.985Z,70.59
2022-12-24T06:06:32.702Z,70.68
2022-12-24T06:07:34.397Z,70.85
2022-12-24T06:08:36.040Z,70.31
2022-12-24T06:09:37.553Z,70.38
2022-12-24T06:10:39.051Z,70.42
2022-12-24T06:11:40.491Z,70.23
2022-12-24T06:12:41.976Z,70.19
2022-12-24T06:13:44.102Z,70.24
2022-12-24T06:14:45.624Z,70.32
2022-12-24T06:15:47.097Z,70.51
2022-12-24T06:16:48.563Z,70.57
2022-12-24T06:17:50.107Z,70.49
2022-12-24T06:18:51.650Z,70.17
2022-12-24T06:19:53.119Z,70.07
2022-12-24T06:20:56.827Z,69.97
2022-12-24T06:21:58.296Z,70.01
2022-12-24T06:22:59.757Z,70.14
2022-12-24T06:24:01.331Z,70.24
2022-12-24T06:25:02.828Z,70.27
2022-12-24T06:26:04.606Z,70.20
2022-12-24T06:27:06.519Z,70.02
2022-12-24T06:28:08.032Z,70.05
2022-12-24T06:29:10.283Z,70.02
2022-12-24T06:30:12.057Z,70.30
2022-12-24T06:31:14.480Z,70.43
2022-12-24T06:32:16.013Z,70.65
2022-12-24T06:33:18.284Z,70.74
2022-12-24T06:34:19.825Z,70.60
2022-12-24T06:35:21.316Z,70.68
2022-12-24T06:36:23.300Z,70.69
2022-12-24T06:37:24.786Z,70.66
2022-12-24T06:38:26.245Z,70.63
2022-12-24T06:39:27.722Z,70.44
2022-12-24T06:40:29.242Z,70.29
2022-12-24T06:41:30.769Z,70.61
2022-12-24T06:42:32.266Z,70.59
2022-12-24T06:43:34.780Z,70.64
2022-12-24T06:44:36.292Z,71.08
2022-12-24T06:45:37.831Z,71.11
2022-12-24T06:46:39.325Z,70.96
2022-12-24T06:47:40.879Z,70.88
2022-12-24T06:48:43.096Z,71.34
2022-12-24T06:49:44.569Z,71.06
2022-12-24T06:50:46.738Z,70.81
2022-12-24T06:51:48.247Z,70.97
2022-12-24T06:52:49.808Z,71.04
2022-12-24T06:53:51.270Z,71.32
2022-12-24T06:54:52.807Z,71.04
2022-12-24T06:56:00.597Z,71.46
2022-12-24T06:57:02.096Z,71.60
2022-12-24T06:58:03.676Z,71.73
2022-12-24T06:59:05.793Z,71.80
2022-12-24T07:00:08.064Z,71.80
2022-12-24T07:01:10.836Z,71.85
2022-12-24T07:02:12.587Z,72.02
2022-12-24T07:03:14.125Z,72.35
2022-12-24T07:04:20.173Z,72.38
2022-12-24T07:05:22.281Z,72.43
2022-12-24T07:06:27.272Z,72.24
2022-12-24T07:07:28.733Z,72.23
2022-12-24T07:08:33.499Z,72.15
2022-12-24T07:09:35.001Z,71.73
2022-12-24T07:10:36.506Z,71.66
2022-12-24T07:11:38.001Z,71.62
2022-12-24T07:12:39.460Z,72.00
2022-12-24T07:13:40.916Z,71.96
2022-12-24T07:14:42.452Z,72.12
2022-12-24T07:15:44.194Z,72.47
2022-12-24T07:16:45.835Z,72.31
2022-12-24T07:17:47.530Z,72.35
2022-12-24T07:18:49.059Z,72.43
2022-12-24T07:19:50.521Z,72.66
2022-12-24T07:20:52.064Z,72.45
2022-12-24T07:21:53.569Z,72.53
2022-12-24T07:22:55.076Z,73.00
2022-12-24T07:23:56.575Z,72.97
2022-12-24T07:24:58.082Z,72.55
2022-12-24T07:26:03.043Z,72.77
2022-12-24T07:27:04.524Z,72.93
2022-12-24T07:28:06.062Z,73.49
2022-12-24T07:29:07.572Z,73.26
2022-12-24T07:30:09.362Z,73.67
2022-12-24T07:31:10.992Z,73.88
2022-12-24T07:32:12.466Z,73.38
2022-12-24T07:33:13.959Z,73.30
2022-12-24T07:34:15.665Z,73.08
2022-12-24T07:35:17.299Z,73.03
2022-12-24T07:36:19.709Z,73.43
2022-12-24T07:37:21.154Z,73.29
2022-12-24T07:38:22.640Z,72.94
2022-12-24T07:39:24.148Z,73.12
2022-12-24T07:40:25.726Z,72.77
2022-12-24T07:41:27.238Z,72.96
2022-12-24T07:42:28.721Z,72.62
2022-12-24T07:43:30.328Z,72.73
2022-12-24T07:44:31.819Z,72.40
2022-12-24T07:45:33.277Z,72.44
2022-12-24T07:46:35.067Z,72.28
2022-12-24T07:47:36.792Z,72.34
2022-12-24T07:48:38.282Z,72.21
2022-12-24T07:49:39.857Z,72.51
2022-12-24T07:50:41.613Z,72.33
2022-12-24T07:51:43.078Z,72.43
2022-12-24T07:52:44.566Z,72.30
2022-12-24T07:53:47.994Z,72.57
2022-12-24T07:54:49.537Z,72.49
2022-12-24T07:55:51.059Z,72.47
2022-12-24T07:56:52.546Z,72.53
2022-12-24T07:57:54.039Z,72.43
2022-12-24T07:58:55.532Z,72.40
2022-12-24T07:59:57.036Z,72.64
2022-12-24T08:00:58.701Z,72.37
2022-12-24T08:02:00.426Z,72.49
2022-12-24T08:03:02.246Z,72.47
2022-12-24T08:04:03.831Z,72.59
2022-12-24T08:05:05.557Z,72.74
2022-12-24T08:06:07.181Z,72.88
2022-12-24T08:07:08.645Z,72.44
2022-12-24T08:08:10.150Z,72.69
2022-12-24T08:09:11.715Z,72.67
2022-12-24T08:10:13.181Z,73.04
2022-12-24T08:11:14.679Z,72.68
2022-12-24T08:12:16.141Z,72.71
2022-12-24T08:13:17.860Z,72.66
2022-12-24T08:14:19.623Z,72.89
2022-12-24T08:15:21.094Z,72.99
2022-12-24T08:16:22.657Z,72.94
2022-12-24T08:17:28.618Z,72.52
2022-12-24T08:18:33.631Z,72.70
2022-12-24T08:19:35.108Z,72.81
2022-12-24T08:20:39.696Z,73.08
2022-12-24T08:21:41.177Z,73.20
2022-12-24T08:22:42.807Z,73.52
2022-12-24T08:23:45.101Z,73.67
2022-12-24T08:24:47.230Z,73.61
2022-12-24T08:25:49.138Z,73.65
2022-12-24T08:26:52.560Z,74.04
2022-12-24T08:27:54.460Z,73.73
2022-12-24T08:28:56.645Z,73.70
2022-12-24T08:29:58.401Z,73.67
2022-12-24T08:31:00.289Z,73.80
2022-12-24T08:32:02.085Z,73.54
2022-12-24T08:33:04.509Z,73.72
2022-12-24T08:34:06.800Z,73.63
2022-12-24T08:35:08.640Z,73.63
2022-12-24T08:36:10.723Z,73.46
2022-12-24T08:37:12.433Z,73.55
2022-12-24T08:38:14.003Z,73.63
2022-12-24T08:39:15.587Z,73.74
2022-12-24T08:40:17.357Z,73.48
2022-12-24T08:41:19.504Z,73.49
2022-12-24T08:42:21.891Z,73.05
2022-12-24T08:43:25.696Z,73.02
2022-12-24T08:44:28.568Z,72.98
2022-12-24T08:45:39.708Z,72.99
2022-12-24T08:46:42.236Z,72.36
2022-12-24T08:47:47.013Z,72.25
2022-12-24T08:48:49.065Z,72.47
2022-12-24T08:49:50.833Z,72.02
2022-12-24T08:50:52.824Z,72.34
2022-12-24T08:51:55.048Z,71.76
2022-12-24T08:52:57.634Z,71.69
2022-12-24T08:54:00.480Z,72.05
2022-12-24T08:55:03.177Z,71.58
2022-12-24T08:56:06.587Z,71.53
2022-12-24T08:57:08.758Z,71.49
2022-12-24T08:58:11.447Z,71.38
2022-12-24T08:59:13.287Z,71.55
2022-12-24T09:00:16.311Z,71.33
2022-12-24T09:01:18.865Z,71.30
2022-12-24T09:02:21.727Z,71.63
2022-12-24T09:08:35.009Z,71.25
2022-12-24T09:09:38.285Z,70.80
2022-12-24T09:10:40.696Z,70.58
2022-12-24T09:11:42.315Z,69.55
2022-12-24T09:12:46.208Z,70.09
2022-12-24T09:13:47.819Z,70.23
2022-12-24T09:14:50.781Z,69.51
2022-12-24T09:37:27.313Z,66.91
2022-12-24T09:41:08.621Z,66.11
2022-12-24T09:42:21.075Z,66.57
2022-12-24T09:43:51.661Z,66.54
2022-12-24T09:45:02.140Z,66.63
2022-12-24T09:46:10.611Z,66.54
2022-12-24T09:47:32.664Z,66.71
2022-12-24T09:48:35.323Z,67.21
2022-12-24T09:49:41.006Z,66.22
2022-12-24T09:50:52.935Z,66.15
2022-12-24T09:51:57.274Z,66.16
2022-12-24T09:52:59.112Z,66.12
2022-12-24T09:54:04.699Z,65.97
2022-12-24T09:55:13.810Z,65.97
2022-12-24T09:56:22.785Z,65.98
2022-12-24T09:57:27.673Z,65.55
2022-12-24T09:58:34.402Z,65.86
2022-12-24T09:59:40.511Z,66.19
2022-12-24T10:00:47.796Z,66.27
2022-12-24T10:01:52.162Z,66.51
2022-12-24T10:02:55.076Z,66.70
2022-12-24T10:03:58.725Z,66.63
2022-12-24T10:05:02.398Z,67.01
2022-12-24T10:06:06.579Z,67.25
2022-12-24T10:07:27.310Z,67.32
2022-12-24T10:08:52.421Z,67.34
2022-12-24T10:09:54.146Z,67.18
2022-12-24T10:10:57.664Z,67.40
2022-12-24T10:12:11.868Z,67.42
2022-12-24T10:13:13.562Z,67.70
2022-12-24T10:14:21.174Z,67.87
2022-12-24T10:15:26.605Z,68.11
2022-12-24T10:16:40.580Z,67.68
2022-12-24T10:17:57.510Z,67.97
2022-12-24T10:19:05.158Z,68.14
2022-12-24T10:20:25.471Z,68.01
2022-12-24T10:21:34.221Z,68.02
2022-12-24T10:22:39.085Z,67.97
2022-12-24T10:24:10.241Z,68.09
2022-12-24T10:25:30.002Z,68.14
2022-12-24T10:26:41.488Z,68.48
2022-12-24T10:27:43.708Z,68.10
2022-12-24T10:29:12.109Z,68.07
2022-12-24T10:30:17.450Z,68.09
2022-12-24T10:31:24.169Z,67.80
2022-12-24T10:33:03.695Z,67.73
2022-12-24T10:34:06.458Z,68.04
2022-12-24T10:35:14.464Z,68.04
2022-12-24T10:36:38.545Z,68.03
2022-12-24T10:37:40.856Z,67.95
2022-12-24T10:38:43.032Z,67.76
2022-12-24T10:39:44.850Z,67.57
2022-12-24T10:53:42.472Z,67.54
2022-12-24T10:55:11.901Z,67.42
2022-12-24T10:56:14.907Z,67.06
2022-12-24T10:57:24.274Z,67.24
2022-12-24T11:22:19.304Z,66.23
2022-12-24T11:34:23.413Z,66.47
2022-12-24T11:36:44.955Z,66.48
2022-12-24T11:44:08.918Z,67.26
2022-12-24T11:45:22.276Z,67.50
2022-12-24T11:46:37.955Z,67.56
2022-12-24T11:47:42.972Z,67.85
2022-12-24T11:57:01.548Z,67.78
2022-12-24T11:58:14.213Z,67.74
2022-12-24T12:05:41.307Z,68.10
2022-12-24T12:06:47.456Z,68.19
2022-12-24T12:07:52.931Z,68.30
2022-12-24T12:08:56.412Z,68.25
2022-12-24T12:10:04.137Z,68.20
2022-12-24T12:11:09.383Z,68.42
2022-12-24T12:12:11.107Z,68.55
2022-12-24T12:13:15.638Z,68.31
2022-12-24T12:14:21.314Z,68.48
2022-12-24T12:15:23.790Z,68.46
2022-12-24T12:17:00.894Z,68.60
2022-12-24T12:18:06.016Z,68.95
2022-12-24T12:19:14.787Z,68.78
2022-12-24T12:20:19.108Z,68.76
2022-12-24T12:21:21.448Z,68.84
2022-12-24T12:22:35.177Z,68.88
2022-12-24T12:23:37.928Z,68.67
2022-12-24T12:24:41.201Z,68.75
2022-12-24T12:25:46.036Z,69.07
2022-12-24T12:26:47.777Z,68.98
2022-12-24T12:27:50.742Z,68.89
2022-12-24T12:28:59.202Z,68.83
2022-12-24T12:30:02.057Z,68.79
2022-12-24T12:31:11.894Z,68.79
2022-12-24T12:32:22.394Z,68.99
2022-12-24T12:33:33.378Z,69.17
2022-12-24T12:34:39.757Z,69.28
2022-12-24T12:35:42.572Z,69.25
2022-12-24T12:36:44.256Z,69.79
2022-12-24T12:37:49.191Z,69.82
2022-12-24T12:38:51.707Z,69.85
2022-12-24T12:39:53.417Z,70.05
2022-12-24T12:41:10.174Z,69.96
2022-12-24T12:42:30.163Z,69.99
2022-12-24T12:43:50.260Z,70.15
2022-12-24T12:44:55.311Z,69.95
2022-12-24T12:46:17.217Z,70.05
2022-12-24T13:10:22.721Z,68.48
2022-12-24T13:11:24.445Z,68.80
2022-12-24T13:12:44.415Z,68.79
2022-12-24T13:14:01.183Z,69.20
2022-12-24T13:15:03.107Z,69.09
2022-12-24T13:16:10.671Z,68.97
2022-12-24T13:17:27.381Z,68.74
2022-12-24T13:18:31.802Z,68.74
2022-12-24T13:19:44.228Z,68.69
2022-12-24T13:20:49.758Z,68.54
2022-12-24T13:21:51.492Z,68.52
2022-12-24T13:45:39.088Z,68.36
2022-12-24T13:46:52.808Z,68.40
2022-12-24T13:47:57.528Z,68.44
2022-12-24T13:48:59.193Z,68.51
2022-12-24T13:50:13.642Z,68.84
2022-12-24T13:51:19.875Z,68.61
2022-12-24T13:52:21.600Z,68.62
2022-12-24T13:53:26.717Z,68.85
2022-12-24T13:54:28.902Z,68.58
2022-12-24T13:55:30.665Z,68.59
2022-12-24T13:56:32.555Z,68.80
2022-12-24T13:57:36.895Z,68.75
2022-12-24T13:58:42.109Z,68.81
2022-12-24T13:59:45.053Z,68.94
2022-12-24T14:01:07.379Z,68.99
2022-12-24T14:02:18.259Z,69.02
2022-12-24T14:03:34.059Z,69.18
2022-12-24T14:04:36.471Z,69.11
2022-12-24T14:05:44.006Z,69.49
2022-12-24T14:06:45.793Z,69.78
2022-12-24T14:07:48.675Z,70.04
2022-12-24T14:08:50.459Z,70.20
2022-12-24T14:09:52.937Z,70.54
2022-12-24T14:11:04.120Z,70.54
2022-12-24T14:12:05.831Z,71.51
2022-12-24T14:13:11.822Z,71.19
2022-12-24T14:14:21.703Z,71.16
2022-12-24T14:15:42.084Z,71.41
2022-12-24T14:16:45.112Z,71.35
2022-12-24T14:17:47.674Z,71.22
2022-12-24T14:19:08.275Z,71.18
2022-12-24T14:20:11.478Z,71.59
2022-12-24T14:21:15.928Z,71.54
2022-12-24T14:22:17.712Z,71.97
2022-12-24T14:23:42.010Z,72.04
2022-12-24T14:24:44.054Z,71.62
2022-12-24T14:25:47.033Z,72.01
2022-12-24T14:26:50.445Z,72.06
2022-12-24T14:27:52.840Z,72.04
2022-12-24T14:28:56.352Z,71.77
2022-12-24T14:29:58.177Z,72.08
2022-12-24T14:31:00.833Z,72.18
2022-12-24T14:32:05.709Z,71.99
2022-12-24T14:33:28.030Z,71.89
2022-12-24T14:34:29.918Z,72.07
2022-12-24T14:35:35.721Z,72.13
2022-12-24T14:36:39.774Z,72.14
2022-12-24T14:37:46.004Z,71.95
2022-12-24T14:48:43.293Z,72.38
2022-12-24T15:15:52.904Z,73.42
2022-12-24T15:16:56.650Z,73.43
2022-12-24T15:17:58.754Z,73.62
2022-12-24T15:19:01.456Z,73.54
2022-12-24T15:31:56.504Z,72.91
2022-12-24T15:32:58.329Z,72.94
2022-12-24T15:34:01.691Z,72.96
2022-12-24T15:35:04.067Z,73.01
2022-12-24T15:36:07.204Z,73.13
2022-12-24T15:37:16.950Z,73.01
2022-12-24T15:38:51.821Z,72.94
2022-12-24T15:39:54.527Z,73.02
2022-12-24T15:40:56.795Z,73.14
2022-12-24T15:42:13.983Z,73.48
2022-12-24T15:56:02.730Z,74.00
2022-12-24T15:57:35.923Z,73.84
2022-12-24T15:58:41.153Z,73.62
2022-12-24T15:59:42.918Z,73.50
2022-12-24T16:00:44.842Z,73.89
2022-12-24T16:01:47.196Z,73.83
2022-12-24T16:02:49.001Z,73.70
2022-12-24T16:03:51.172Z,73.47
2022-12-24T16:04:53.860Z,73.61
2022-12-24T16:05:59.280Z,73.48
2022-12-24T16:07:02.103Z,73.53
2022-12-24T16:08:10.170Z,73.33
2022-12-24T16:09:31.413Z,73.16
2022-12-24T16:10:39.092Z,73.44
2022-12-24T16:11:41.223Z,73.28
2022-12-24T16:12:43.500Z,73.17
2022-12-24T16:24:06.713Z,74.05
2022-12-24T16:25:27.277Z,74.27
2022-12-24T16:26:28.976Z,74.13
2022-12-24T16:27:31.803Z,74.22
2022-12-24T16:28:34.085Z,74.31
2022-12-24T16:29:36.181Z,74.36
2022-12-24T16:30:37.914Z,74.43
2022-12-24T16:31:43.539Z,74.55
2022-12-24T16:32:46.928Z,74.32
2022-12-24T16:33:58.336Z,74.23
2022-12-24T16:35:00.646Z,74.29
2022-12-24T16:36:02.780Z,74.23
2022-12-24T16:37:05.682Z,74.16
2022-12-24T17:28:03.831Z,74.58
2022-12-24T17:34:10.777Z,73.77
2022-12-24T18:37:00.046Z,71.93
2022-12-24T18:41:48.173Z,71.98
2022-12-24T18:42:50.060Z,71.93
2022-12-24T18:43:51.811Z,71.78
2022-12-24T18:44:54.027Z,71.80
2022-12-24T18:45:56.181Z,71.80
2022-12-24T18:47:01.034Z,71.83
2022-12-24T18:48:05.883Z,71.65
2022-12-24T18:49:07.674Z,71.79
2022-12-24T18:50:10.130Z,71.77
2022-12-24T18:51:13.593Z,71.73
2022-12-24T18:52:22.453Z,71.82
2022-12-24T18:53:25.586Z,71.79
2022-12-24T18:54:28.025Z,71.77
2022-12-24T18:55:29.894Z,71.65
2022-12-24T18:56:32.204Z,71.42
2022-12-24T18:57:33.791Z,71.37
2022-12-24T18:58:37.861Z,71.36
2022-12-24T18:59:39.730Z,71.32
2022-12-24T19:12:04.948Z,71.48
2022-12-24T19:13:07.143Z,71.44
2022-12-24T19:14:10.824Z,71.71
2022-12-24T19:15:13.115Z,71.50
2022-12-24T19:16:15.206Z,71.41
2022-12-24T19:17:17.524Z,71.43
2022-12-24T19:18:19.652Z,71.40
2022-12-24T19:19:24.282Z,71.53
2022-12-24T19:20:27.422Z,71.40
2022-12-24T19:21:29.509Z,71.50
2022-12-24T19:22:31.704Z,71.43
2022-12-24T19:23:33.587Z,71.44
2022-12-24T19:24:36.240Z,71.60
2022-12-24T19:25:38.174Z,71.88
2022-12-24T19:26:40.399Z,71.67
2022-12-24T19:27:42.142Z,71.44
2022-12-24T19:28:44.439Z,71.43
2022-12-24T19:29:46.711Z,71.57
2022-12-24T19:30:50.864Z,71.91
2022-12-24T19:31:52.822Z,72.25
2022-12-24T19:32:55.089Z,72.09
2022-12-24T19:33:56.783Z,72.11